Green Lofoten — P3MG8 — position and weather

sailwx.info

Track history (hours):
 
Tides and Currents Weather Stations Pressure Air Temp Water Temp Dewpoint Dewpoint Depression Visibility Wind Speed Wind Dir Waves Ship Positions

Green Lofoten

Last reported at 2016-Sep-30 02:31 UTC. Time now 2016-Oct-01 18:59 UTC.
Position N 59°18' W 004°03'.

Length 98 m; draft 4.7 m.

Type: Ship. MMSI: 212857000.

Date/timePositionNaut miles runAvg speedWind from/ knotsBaromVisibWave heightAir tempDewpointWater temp
2016-Sep-30 02:31N 59°18' W 004°03'27 9.0
2016-Sep-29 23:33N 58°54' W 003°39'18 9.0
2016-Sep-29 21:33N 58°44' W 003°11'8 7.6
2016-Sep-29 20:33N 58°40' W 002°58'7 7.4
2016-Sep-29 19:34N 58°33' W 002°57'250 8.0
2016-Sep-28 12:34N 54°48' E 000°19'12013.4
2016-Sep-28 03:34N 53°10' E 002°18'1312.8
2016-Sep-28 02:34N 53°00' E 002°32'1413.6
2016-Sep-28 01:34N 52°50' E 002°48'2913.3
2016-Sep-27 23:21N 52°31' E 003°24'4311.4
2016-Sep-27 19:33N 52°28' E 004°35'0 0.1
2016-Sep-27 14:31N 52°27' E 004°35'0 0.0
2016-Sep-27 13:31N 52°27' E 004°35'0 0.0
2016-Sep-27 10:31N 52°27' E 004°35'0 0.0
2016-Sep-27 00:31N 52°27' E 004°35'0 0.0
2016-Sep-26 20:31N 52°27' E 004°35'0 0.0
2016-Sep-26 19:31N 52°27' E 004°35'0 0.0
2016-Sep-26 15:31N 52°27' E 004°35'0 0.0
2016-Sep-26 13:31N 52°27' E 004°35'1 0.5
2016-Sep-26 11:34N 52°28' E 004°33'26 8.6
2016-Sep-26 08:33N 52°27' E 003°51'18412.3
2016-Sep-25 17:33N 54°44' E 000°24'1211.6
2016-Sep-25 16:33N 54°53' E 000°11'16910.6
2016-Sep-25 00:33N 57°31' W 001°39'17 7.8
2016-Sep-24 22:22N 57°46' W 001°53'57 9.9
2016-Sep-24 16:33N 58°32' W 002°57'2211.1
2016-Sep-24 14:33N 58°46' W 003°31'2411.7
2016-Sep-24 12:33N 59°07' W 003°49'  
2016-Sep-20 10:29N 59°15' W 003°58'2513.0
2016-Sep-20 08:33N 58°52' W 003°37'1212.4
2016-Sep-20 07:33N 58°44' W 003°19'1414.0
2016-Sep-20 06:33N 58°37' W 002°56'  
Track history (hours):
 
Tides and Currents Weather Stations Pressure Air Temp Water Temp Dewpoint Dewpoint Depression Visibility Wind Speed Wind Dir Waves Ship Positions

Green Lofoten

Last reported at 2016-Sep-30 02:31 UTC. Time now 2016-Oct-01 18:59 UTC.
Position N 59°18' W 004°03'.

Length 98 m; draft 4.7 m.

Type: Ship. MMSI: 212857000.

Date/timePositionNaut miles runAvg speedWind from/ knotsBaromVisibWave heightAir tempDewpointWater temp
2016-Sep-30 02:31N 59°18' W 004°03'27 9.0
2016-Sep-29 23:33N 58°54' W 003°39'18 9.0
2016-Sep-29 21:33N 58°44' W 003°11'8 7.6
2016-Sep-29 20:33N 58°40' W 002°58'7 7.4
2016-Sep-29 19:34N 58°33' W 002°57'250 8.0
2016-Sep-28 12:34N 54°48' E 000°19'12013.4
2016-Sep-28 03:34N 53°10' E 002°18'1312.8
2016-Sep-28 02:34N 53°00' E 002°32'1413.6
2016-Sep-28 01:34N 52°50' E 002°48'2913.3
2016-Sep-27 23:21N 52°31' E 003°24'4311.4
2016-Sep-27 19:33N 52°28' E 004°35'0 0.1
2016-Sep-27 14:31N 52°27' E 004°35'0 0.0
2016-Sep-27 13:31N 52°27' E 004°35'0 0.0
2016-Sep-27 10:31N 52°27' E 004°35'0 0.0
2016-Sep-27 00:31N 52°27' E 004°35'0 0.0
2016-Sep-26 20:31N 52°27' E 004°35'0 0.0
2016-Sep-26 19:31N 52°27' E 004°35'0 0.0
2016-Sep-26 15:31N 52°27' E 004°35'0 0.0
2016-Sep-26 13:31N 52°27' E 004°35'1 0.5
2016-Sep-26 11:34N 52°28' E 004°33'26 8.6
2016-Sep-26 08:33N 52°27' E 003°51'18412.3
2016-Sep-25 17:33N 54°44' E 000°24'1211.6
2016-Sep-25 16:33N 54°53' E 000°11'16910.6
2016-Sep-25 00:33N 57°31' W 001°39'17 7.8
2016-Sep-24 22:22N 57°46' W 001°53'57 9.9
2016-Sep-24 16:33N 58°32' W 002°57'2211.1
2016-Sep-24 14:33N 58°46' W 003°31'2411.7
2016-Sep-24 12:33N 59°07' W 003°49'  
2016-Sep-20 10:29N 59°15' W 003°58'2513.0
2016-Sep-20 08:33N 58°52' W 003°37'1212.4
2016-Sep-20 07:33N 58°44' W 003°19'1414.0
2016-Sep-20 06:33N 58°37' W 002°56'  

Dump ship's entire track history